Terminal Aerodrome Forecast
Issued by NWS

Home | Current Version | Previous Version | Text Only | Print | Product List | Glossary On
Versions: 1 2 3 4 5 6 7 8 9 10 11 12 13 14 15 16 17 18 19 20 21 22 23 24 25 26 27 28 29 30 31 32 33 34
000
FTUS42 KFFC 031234 AAA
TAFPDK
TAF AMD
KPDK 031234Z 0313/0412 23010KT 4SM -TSRA BR SCT009 BKN015CB
      TEMPO 0313/0314 VRB10G20KT 2SM +TSRA BR BKN009CB
     FM031400 30010KT 4SM -SHRA BKN025 BKN050
      TEMPO 0314/0318 VRB15G25KT 2SM TSRA BR BKN015CB
     FM032100 27012KT 5SM TSRA BKN020CB
     FM040100 27008KT P6SM -SHRA BKN030 BKN080
     FM040600 26009KT P6SM OVC020=

USA.gov is the U.S. government's official web portal to all federal, state and local government web resources and services.